• Join FlightAware (Why Join?)
  • Login
  • US Flag 
01:44PM EDT


 

Airport Tracker/Info


-or-


 

Live Flight TrackerFlight Track Log ✈ AFR72 ✈ 20-Jul-2013 ✈ LFPG / CDG - KLAX

Flight Track Log - Related Links

Times and Time Zones

All times are in EDT time to prevent confusion due to time zone crossing. See the AFR72 flight status page for this flight to view local times or setup timezone preferences in your user account.

Time Position Orientation Groundspeed Altitude Reporting Facility
EDT Latitude Longitude Course Direction KTS MPH feet Rate Location/Type
07:51AM 49.0000 2.5780 264° West 13 15  Level FlightAware
07:52AM 49.0000 2.5750 270° West 17 20  Level FlightAware
07:52AM 48.9990 2.5710 249° West 16 18  Level FlightAware
07:53AM 48.9990 2.5690 270° West 16 18  Level FlightAware
07:53AM 48.9990 2.5660 270° West 16 18  Level FlightAware
07:54AM 48.9990 2.5640 270° West 20 23  Level FlightAware
07:54AM 48.9990 2.5600 270° West 3 3  Level FlightAware
07:56AM 49.0000 2.5560 291° West 13 15  Level FlightAware
07:56AM 49.0010 2.5550 327° Northwest 17 20  Level FlightAware
07:56AM 49.0030 2.5540 342° North 14 16  Level FlightAware
07:57AM 49.0040 2.5530 327° Northwest 19 22  Level FlightAware
07:57AM 49.0060 2.5530 360° North 21 24  Level FlightAware
07:59AM 49.0120 2.5500 342° North 14 16  Level FlightAware
07:59AM 49.0160 2.5490 351° North 17 20  Level FlightAware
08:00AM 49.0180 2.5480 342° North 15 17  Level FlightAware
08:00AM 49.0180 2.5470 270° West 13 15  Level FlightAware
08:00AM 49.0180 2.5460 270° West 11 13  Level FlightAware
08:01AM 49.0180 2.5420 270° West 13 15  Level FlightAware
08:01AM 49.0180 2.5400 270° West 18 21 60 Level FlightAware
08:02AM 49.0180 2.5380 270° West 17 20 60 Level FlightAware
08:02AM 49.0180 2.5350 270° West 16 18 60 Level FlightAware
08:02AM 49.0180 2.5320 270° West 14 16 60 Level FlightAware
08:03AM 49.0180 2.5310 270° West 18 21 60 Level FlightAware
08:03AM 49.0170 2.5270 249° West 17 20 60 Level FlightAware
08:04AM 49.0170 2.5250 270° West 19 22 60 Level FlightAware
08:05AM 49.0180 2.5210 291° West 7 8 120 Level FlightAware
08:05AM 49.0200 2.5210 360° North 13 15 120 Level FlightAware
08:06AM 49.0210 2.5220 33° Northeast 2 2 180 Level FlightAware
08:07AM 49.0220 2.5330 82° East 115 132 300 Level FlightAware
08:07AM 49.0230 2.5610 87° East 183 211 400 1,320 Climbing FlightAware
08:07AM 49.0240 2.5780 85° East 185 213 900 2,520 Climbing FlightAware
08:08AM 49.0260 2.6180 86° East 181 208 2,300 2,280 Climbing FlightAware
08:08AM 49.0280 2.6500 85° East 188 216 3,000 1,680 Climbing FlightAware
08:08AM 49.0290 2.6770 87° East 189 217 3,600 1,200 Climbing FlightAware
08:09AM 49.0310 2.7070 84° East 215 247 3,800 660 Climbing FlightAware
08:09AM 49.0330 2.7380 84° East 238 274 4,100 720 Climbing FlightAware
08:09AM 49.0370 2.7540 69° East 244 281 4,300 720 Climbing FlightAware
08:10AM 49.0510 2.7730 42° Northeast 267 307 4,500 1,500 Climbing FlightAware
08:10AM 49.0680 2.7810 17° North 274 315 5,000 3,000 Climbing FlightAware
08:10AM 49.1130 2.7560 340° North 276 318 6,500 2,820 Climbing FlightAware
08:11AM 49.1250 2.7460 331° Northwest 285 328 6,900 2,280 Climbing FlightAware
08:11AM 49.1530 2.7270 336° Northwest 280 322 7,800 1,920 Climbing FlightAware
08:11AM 49.1800 2.7110 339° North 290 334 8,600 2,100 Climbing FlightAware
08:12AM 49.2160 2.6910 340° North 294 338 9,700 1,620 Climbing FlightAware
08:13AM 49.2770 2.6570 340° North 317 365 10,500 900 Climbing FlightAware
08:13AM 49.3330 2.6260 340° North 345 397 11,100 360 Climbing FlightAware
08:14AM 49.3940 2.5900 339° North 346 398 11,200 960 Climbing FlightAware
08:16AM 49.5520 2.5000 340° North 395 455 13,500 2,460 Climbing FlightAware
08:16AM 49.6480 2.4470 340° North 415 478 16,300 2,760 Climbing FlightAware
08:18AM 49.7940 2.3630 340° North 432 497 18,600 1,800 Climbing FlightAware
08:18AM 49.8720 2.3190 340° North 448 516 19,700 1,560 Climbing FlightAware
08:19AM 49.9650 2.2650 340° North 449 517 21,000 1,380 Climbing FlightAware
08:20AM 50.0420 2.2180 339° North 461 531 22,000 1,380 Climbing FlightAware
08:20AM 50.1160 2.1450 328° Northwest 465 535 23,000 1,380 Climbing FlightAware
08:21AM 50.1950 2.0690 328° Northwest 481 554 23,900 1,380 Climbing FlightAware
08:22AM 50.2760 1.9940 329° Northwest 487 560 24,800 1,380 Climbing FlightAware
08:23AM 50.3770 1.9000 329° Northwest 495 570 25,900 1,200 Climbing FlightAware
08:23AM 50.4530 1.8250 328° Northwest 495 570 26,600 1,200 Climbing FlightAware
08:24AM 50.5320 1.7360 324° Northwest 509 586 27,500 1,080 Climbing FlightAware
08:24AM 50.5970 1.6570 322° Northwest 505 581 28,000 840 Climbing FlightAware
08:25AM 50.7020 1.5310 323° Northwest 515 593 28,800 1,080 Climbing FlightAware
08:26AM 50.7680 1.4510 323° Northwest 516 594 29,800 900 Climbing FlightAware
08:27AM 50.8370 1.3680 323° Northwest 513 590 30,000 120 Climbing FlightAware
08:27AM 50.9150 1.2730 322° Northwest 512 589 30,000  Level FlightAware
08:28AM 51.0240 1.1420 323° Northwest 512 589 30,000  Level FlightAware
08:29AM 51.0950 1.0550 322° Northwest 512 589 30,000  Level FlightAware
08:30AM 51.1770 0.9540 322° Northwest 512 589 30,000 60 Level FlightAware
08:30AM 51.2680 0.8430 323° Northwest 513 590 30,100 540 Climbing FlightAware
08:31AM 51.3330 0.7800 329° Northwest 511 588 30,800 780 Climbing FlightAware
08:32AM 51.4090 0.7120 331° Northwest 511 588 31,200 900 Climbing FlightAware
08:33AM 51.5060 0.6260 331° Northwest 508 585 32,300 1,260 Climbing FlightAware
08:33AM 51.6210 0.5230 331° Northwest 507 583 33,300 1,080 Climbing FlightAware
08:34AM 51.7200 0.4310 330° Northwest 504 580 34,000 480 Climbing FlightAware
08:35AM 51.8070 0.3460 329° Northwest 504 580 34,000  Level FlightAware
08:35AM 51.8850 0.2700 329° Northwest 505 581 34,000  Level FlightAware
08:36AM 51.9390 0.2180 329° Northwest 504 580 34,000  Level FlightAware
08:37AM 52.0290 0.1310 329° Northwest 505 581 34,000  Level FlightAware
08:37AM 52.1100 0.0510 329° Northwest 504 580 34,000  Level FlightAware
08:38AM 52.1770 -0.0150 329° Northwest 503 579 34,000  Level FlightAware
08:39AM 52.2540 -0.0910 329° Northwest 504 580 34,000  Level FlightAware
08:39AM 52.3200 -0.1570 329° Northwest 505 581 34,000  Level FlightAware
08:40AM 52.4210 -0.2570 329° Northwest 508 585 34,000  Level FlightAware
08:41AM 52.5140 -0.3490 329° Northwest 509 586 34,000  Level FlightAware
08:42AM 52.6240 -0.4600 329° Northwest 510 587 34,000  Level FlightAware
08:42AM 52.7160 -0.5530 329° Northwest 510 587 34,000  Level FlightAware
08:43AM 52.7790 -0.6180 328° Northwest 510 587 34,000  Level FlightAware
08:44AM 52.8660 -0.7060 329° Northwest 511 588 34,000  Level FlightAware
08:44AM 52.9250 -0.7600 331° Northwest 510 587 34,000  Level FlightAware
08:45AM 53.0340 -0.8610 331° Northwest 509 586 34,000  Level FlightAware
08:46AM 53.1510 -0.9720 330° Northwest 509 586 34,000  Level FlightAware
08:47AM 53.2700 -1.0840 331° Northwest 510 587 34,000  Level FlightAware
08:48AM 53.3670 -1.1770 330° Northwest 510 587 34,000  Level FlightAware
08:48AM 53.4540 -1.2620 330° Northwest 511 588 34,000  Level FlightAware
08:49AM 53.5190 -1.3240 330° Northwest 512 589 34,000  Level FlightAware
08:50AM 53.6420 -1.4440 330° Northwest 513 590 34,000  Level FlightAware
08:51AM 53.7320 -1.5320 330° Northwest 514 592 34,000  Level FlightAware
08:51AM 53.8280 -1.6260 330° Northwest 513 590 34,000  Level FlightAware
08:52AM 53.9130 -1.7100 330° Northwest 513 590 34,000  Level FlightAware
08:53AM 53.9830 -1.7790 330° Northwest 514 592 34,000  Level FlightAware
08:53AM 54.0750 -1.8710 330° Northwest 514 592 34,000  Level FlightAware
08:54AM 54.1620 -1.9580 330° Northwest 515 593 34,000  Level FlightAware
08:55AM 54.2310 -2.0280 329° Northwest 516 594 34,000  Level FlightAware
08:56AM 54.3380 -2.1350 330° Northwest 516 594 34,000  Level FlightAware
08:57AM 54.4570 -2.2570 329° Northwest 515 593 34,000  Level FlightAware
08:57AM 54.5520 -2.3540 329° Northwest 514 592 34,000  Level FlightAware
08:58AM 54.6280 -2.4310 330° Northwest 513 590 34,000  Level FlightAware
08:59AM 54.6860 -2.4920 329° Northwest 513 590 34,000  Level FlightAware
08:59AM 54.7790 -2.5880 329° Northwest 514 592 34,000  Level FlightAware
09:00AM 54.8780 -2.6910 329° Northwest 515 593 34,000  Level FlightAware
09:01AM 54.9510 -2.7770 326° Northwest 514 592 34,000  Level FlightAware
09:01AM 54.9930 -2.8390 320° Northwest 512 589 34,000  Level FlightAware
09:02AM 55.0900 -3.0080 315° West 512 589 34,000  Level FlightAware
09:03AM 55.1820 -3.1730 314° West 512 589 34,000  Level FlightAware
09:04AM 55.2480 -3.2910 314° West 512 589 34,000  Level FlightAware
09:04AM 55.3150 -3.4140 314° West 513 590 34,000  Level FlightAware
09:05AM 55.3690 -3.5130 314° West 513 590 34,000  Level FlightAware
09:06AM 55.4370 -3.6360 314° West 514 592 34,000  Level FlightAware
09:06AM 55.5020 -3.7560 314° West 514 592 34,000  Level FlightAware
09:07AM 55.6120 -3.9600 314° West 513 590 34,000  Level FlightAware
09:08AM 55.6920 -4.1100 313° West 513 590 34,000  Level FlightAware
09:09AM 55.7490 -4.2160 314° West 512 589 34,000  Level FlightAware
09:10AM 55.8010 -4.3140 313° West 512 589 34,000  Level FlightAware
09:10AM 55.8770 -4.4650 312° West 510 587 34,000  Level FlightAware
09:11AM 55.9540 -4.6420 308° West 508 585 34,000  Level FlightAware
09:12AM 56.0200 -4.7960 308° West 509 586 34,000  Level FlightAware
09:12AM 56.0830 -4.9460 307° West 509 586 34,000  Level FlightAware
09:13AM 56.1240 -5.0450 307° West 508 585 34,000  Level FlightAware
09:14AM 56.1860 -5.1920 307° West 509 586 34,000 420 Level FlightAware
09:15AM 56.2900 -5.4440 307° West 509 586 34,900 540 Climbing FlightAware
09:16AM 56.3620 -5.6200 306° West 509 586 35,000 60 Climbing FlightAware
09:16AM 56.4190 -5.7580 307° West 510 587 35,000  Level FlightAware
09:17AM 56.4750 -5.8960 306° West 508 585 35,000  Level FlightAware
09:18AM 56.5500 -6.0840 306° West 505 581 35,000  Level FlightAware
09:19AM 56.6120 -6.2390 306° West 504 580 35,000  Level FlightAware
09:19AM 56.6690 -6.3820 306° West 504 580 35,000  Level FlightAware
09:20AM 56.7230 -6.5170 306° West 504 580 35,000  Level FlightAware
09:21AM 56.7720 -6.6440 305° West 503 579 35,000  Level FlightAware
09:22AM 56.8400 -6.8170 306° West 507 583 35,000  Level FlightAware
09:22AM 56.9000 -6.9720 305° West 509 586 35,000  Level FlightAware
09:23AM 56.9490 -7.1010 305° West 509 586 35,000  Level FlightAware
09:24AM 57.0310 -7.3130 305° West 508 585 35,000  Level FlightAware
09:25AM 57.0780 -7.4380 305° West 508 585 35,000  Level FlightAware
09:26AM 57.1760 -7.6980 305° West 506 582 35,000  Level FlightAware
09:26AM 57.2280 -7.8370 305° West 499 574 35,000  Level FlightAware
09:27AM 57.2800 -7.9750 305° West 499 574 35,000  Level FlightAware
09:28AM 57.3360 -8.1260 305° West 496 571 35,000  Level FlightAware
09:29AM 57.4000 -8.3020 304° West 496 571 35,000  Level FlightAware
09:29AM 57.4500 -8.4420 304° West 495 570 35,000  Level FlightAware
09:30AM 57.5010 -8.5880 303° West 495 570 35,000  Level FlightAware
09:31AM 57.5310 -8.6730 303° West 495 570 35,000  Level FlightAware
09:31AM 57.5690 -8.7830 303° West 495 570 35,000  Level FlightAware
09:33AM 57.6590 -9.0420 303° West 495 570 35,000  Level FlightAware
09:33AM 57.6970 -9.1520 303° West 495 570 35,000  Level FlightAware
09:34AM 57.7480 -9.2990 303° West 495 570 35,000  Level FlightAware
09:35AM 57.7860 -9.4090 303° West 495 570 35,000  Level FlightAware
09:35AM 57.8370 -9.5560 303° West 495 570 35,000  Level FlightAware
09:36AM 57.8750 -9.6660 303° West 495 570 35,000  Level FlightAware
09:37AM 57.9400 -9.8540 303° West 495 570 35,000  Level FlightAware
09:38AM 57.9910 -10.0020 303° West 495 570 35,000  Level FlightAware
09:39AM 58.0300 -10.1160 303° West 495 570 35,000  Level FlightAware
09:41AM 58.1684 -10.5180 303° West  Level Estimated
09:41AM 58.2490 -10.9320 303° West 498 573 35,000  Level FlightAware
09:41AM 58.2790 -11.0600 294° West 498 573 35,000  Level FlightAware
09:42AM 58.3180 -11.2260 294° West 498 573 35,000  Level FlightAware
09:43AM 58.3470 -11.3530 294° West 498 573 35,000  Level FlightAware
09:43AM 58.3830 -11.5060 294° West 498 573 35,000  Level FlightAware
09:44AM 58.4370 -11.7310 295° West 496 571 35,000  Level FlightAware
09:45AM 58.4650 -11.8580 293° West 496 571 35,000  Level FlightAware
09:46AM 58.5030 -12.0260 293° West 496 571 35,000  Level FlightAware
09:46AM 58.5320 -12.1570 293° West 496 571 35,000  Level FlightAware
09:47AM 58.5590 -12.2800 293° West 496 571 35,000  Level FlightAware
09:47AM 58.5870 -12.4080 293° West 496 571 35,000  Level FlightAware
09:48AM 58.6330 -12.6150 293° West 496 571 35,000  Level FlightAware
09:49AM 58.6600 -12.7390 293° West 496 571 35,000  Level FlightAware
09:50AM 58.6870 -12.8600 293° West 496 571 35,000  Level FlightAware
09:51AM 58.7340 -13.0740 293° West 496 571 35,000  Level FlightAware
09:51AM 58.7610 -13.1990 293° West 496 571 35,000  Level FlightAware
09:52AM 58.7900 -13.3300 293° West 496 571 35,000  Level FlightAware
09:53AM 58.8190 -13.4590 294° West 496 571 35,000  Level FlightAware
09:53AM 58.8440 -13.5770 292° West 496 571 35,000  Level FlightAware
09:54AM 58.8720 -13.7020 293° West 496 571 35,000  Level FlightAware
09:56AM 58.9887 -14.0915 300° West  Level Estimated
09:57AM 59.0518 -14.3051 300° West  Level Estimated
09:58AM 59.1146 -14.5195 300° West  Level Estimated
09:59AM 59.1771 -14.7346 300° West  Level Estimated
10:00AM 59.2392 -14.9505 299° West  Level Estimated
10:01AM 59.3009 -15.1672 299° West  Level Estimated
10:02AM 59.3623 -15.3847 299° West  Level Estimated
10:03AM 59.4233 -15.6030 299° West  Level Estimated
10:04AM 59.4839 -15.8221 299° West  Level Estimated
10:05AM 59.5442 -16.0419 298° West  Level Estimated
10:06AM 59.6041 -16.2626 298° West  Level Estimated
10:07AM 59.6636 -16.4840 298° West  Level Estimated
10:08AM 59.7228 -16.7062 298° West  Level Estimated
10:09AM 59.7816 -16.9292 298° West  Level Estimated
10:10AM 59.8400 -17.1530 298° West  Level Estimated
10:11AM 59.8980 -17.3776 297° West  Level Estimated
10:12AM 59.9556 -17.6029 297° West  Level Estimated
10:13AM 60.0129 -17.8291 297° West  Level Estimated
10:14AM 60.0697 -18.0560 297° West  Level Estimated
10:15AM 60.1262 -18.2836 297° West  Level Estimated
10:16AM 60.1823 -18.5121 296° West  Level Estimated
10:17AM 60.2380 -18.7414 296° West  Level Estimated
10:18AM 60.2933 -18.9714 296° West  Level Estimated
10:19AM 60.3482 -19.2022 296° West  Level Estimated
10:20AM 60.4026 -19.4338 296° West  Level Estimated
10:21AM 60.4567 -19.6661 295° West  Level Estimated
10:22AM 60.5104 -19.8993 295° West  Level Estimated
10:23AM 60.5637 -20.1332 295° West  Level Estimated
10:24AM 60.6166 -20.3678 295° West  Level Estimated
10:24AM 60.3990 -21.5670 295° West 483 556 35,000  Level FlightAware
10:24AM 60.4370 -21.7290 295° West 486 559 35,000  Level FlightAware
10:25AM 60.4810 -21.9160 296° West 486 559 35,000  Level FlightAware
10:26AM 60.5320 -22.1400 295° West 488 562 35,000  Level FlightAware
10:26AM 60.5670 -22.2960 295° West 488 562 35,000  Level FlightAware
10:27AM 60.6110 -22.4890 295° West 487 560 35,000  Level FlightAware
10:28AM 60.6470 -22.6500 295° West 486 559 35,000  Level FlightAware
10:28AM 60.6780 -22.7920 294° West 486 559 35,000  Level FlightAware
10:29AM 60.7130 -22.9500 294° West 486 559 35,000  Level FlightAware
10:30AM 60.7570 -23.1510 294° West 484 557 35,000  Level FlightAware
10:31AM 60.8080 -23.3840 294° West 483 556 35,000  Level FlightAware
10:32AM 60.8560 -23.6120 293° West 481 554 35,000  Level FlightAware
10:33AM 60.9120 -23.8740 294° West 477 549 35,000  Level FlightAware
10:33AM 60.9450 -24.0330 293° West 479 551 35,000  Level FlightAware
10:34AM 60.9810 -24.2080 293° West 479 551 35,000  Level FlightAware
10:35AM 61.0190 -24.3900 293° West 478 550 35,000  Level FlightAware
10:35AM 61.0510 -24.5490 293° West 478 550 35,000  Level FlightAware
10:36AM 61.0910 -24.7440 293° West 479 551 35,000  Level FlightAware
10:37AM 61.1200 -24.8880 293° West 480 552 35,000  Level FlightAware
10:38AM 61.1550 -25.0660 292° West 478 550 35,000  Level FlightAware
10:39AM 61.2010 -25.3000 292° West 479 551 35,000  Level FlightAware
10:40AM 61.2640 -25.6200 292° West 483 556 35,000  Level FlightAware
10:40AM 61.2970 -25.7930 292° West 482 555 35,000  Level FlightAware
10:41AM 61.3300 -25.9670 292° West 483 556 35,000  Level FlightAware
10:42AM 61.3670 -26.1630 292° West 485 558 35,000  Level FlightAware
10:42AM 61.3930 -26.3020 291° West 485 558 35,000  Level FlightAware
10:43AM 61.4210 -26.4550 291° West 485 558 35,000  Level FlightAware
10:44AM 61.4450 -26.5890 291° West 485 558 35,000  Level FlightAware
10:44AM 61.4970 -26.8700 291° West 487 560 35,000  Level FlightAware
10:45AM 61.5330 -27.0700 291° West 488 562 35,000  Level FlightAware
10:46AM 61.5710 -27.2930 290° West 488 562 35,000  Level FlightAware
10:47AM 61.6120 -27.5210 291° West 488 562 35,000  Level FlightAware
10:48AM 61.6360 -27.6580 290° West 488 562 35,000  Level FlightAware
10:48AM 61.6840 -27.9370 290° West 494 568 35,000  Level FlightAware
10:49AM 61.7090 -28.0830 290° West 498 573 35,000  Level FlightAware
10:50AM 61.7450 -28.2950 290° West 503 579 35,000  Level FlightAware
10:50AM 61.7680 -28.4330 289° West 506 582 35,000  Level FlightAware
10:51AM 61.7970 -28.6110 289° West 507 583 35,000  Level FlightAware
10:52AM 61.8280 -28.7950 290° West 503 579 35,000  Level FlightAware
10:52AM 61.8710 -29.0640 289° West 499 574 35,000  Level FlightAware
10:53AM 61.9060 -29.2860 289° West 501 577 35,000  Level FlightAware
10:54AM 61.9260 -29.4210 288° West 501 577 35,000  Level FlightAware
10:55AM 61.9570 -29.6050 290° West 498 573 35,000  Level FlightAware
10:56AM 62.0070 -29.9310 288° West 499 574 35,000  Level FlightAware
10:57AM 62.0440 -30.1770 288° West 499 574 35,000  Level FlightAware
10:58AM 62.0670 -30.3290 288° West 499 574 35,000  Level FlightAware
10:58AM 62.0900 -30.4760 289° West 499 574 35,000  Level FlightAware
10:59AM 62.1180 -30.6600 288° West 499 574 35,000  Level FlightAware
11:00AM 62.1470 -30.8510 288° West 499 574 35,000  Level FlightAware
11:00AM 62.1690 -30.9990 288° West 499 574 35,000  Level FlightAware
11:01AM 62.1910 -31.1470 288° West 499 574 35,000  Level FlightAware
11:02AM 62.2160 -31.3110 288° West 499 574 35,000  Level FlightAware
11:02AM 62.2390 -31.4630 288° West 499 574 35,000  Level FlightAware
11:03AM 62.2620 -31.6120 288° West 499 574 35,000  Level FlightAware
11:04AM 62.2990 -31.8610 288° West 499 574 35,000  Level FlightAware
11:05AM 62.3210 -32.0050 288° West 499 574 35,000  Level FlightAware
11:07AM 62.3817 -32.5215 284° West  Level Estimated
11:08AM 62.4121 -32.7871 284° West  Level Estimated
11:09AM 62.4420 -33.0533 284° West  Level Estimated
11:10AM 62.4714 -33.3200 284° West  Level Estimated
11:11AM 62.5002 -33.5872 283° West  Level Estimated
11:12AM 62.5286 -33.8550 283° West  Level Estimated
11:13AM 62.5564 -34.1232 283° West  Level Estimated
11:14AM 62.5838 -34.3920 283° West  Level Estimated
11:15AM 62.6106 -34.6612 282° West  Level Estimated
11:16AM 62.6369 -34.9309 282° West  Level Estimated
11:17AM 62.6626 -35.2011 282° West  Level Estimated
11:18AM 62.6879 -35.4718 282° West  Level Estimated
11:19AM 62.7126 -35.7429 281° West  Level Estimated
11:20AM 62.7368 -36.0145 281° West  Level Estimated
11:21AM 62.7605 -36.2865 281° West  Level Estimated
11:22AM 62.7837 -36.5589 281° West  Level Estimated
11:23AM 62.8063 -36.8318 280° West  Level Estimated
11:24AM 62.8284 -37.1051 280° West  Level Estimated
11:25AM 62.8500 -37.3787 280° West  Level Estimated
11:26AM 62.8710 -37.6528 280° West  Level Estimated
11:27AM 62.8915 -37.9273 279° West  Level Estimated
11:28AM 62.9115 -38.2021 279° West  Level Estimated
11:29AM 62.9309 -38.4774 279° West  Level Estimated
11:30AM 62.9498 -38.7529 279° West  Level Estimated
11:31AM 62.9682 -39.0289 278° West  Level Estimated
11:32AM 62.9860 -39.3051 278° West  Level Estimated
11:33AM 63.0033 -39.5818 278° West  Level Estimated
11:34AM 63.0200 -39.8587 278° West  Level Estimated
11:35AM 63.0362 -40.1359 277° West  Level Estimated
11:36AM 63.0519 -40.4135 277° West  Level Estimated
11:37AM 63.0670 -40.6913 277° West  Level Estimated
11:38AM 63.0816 -40.9694 277° West  Level Estimated
11:39AM 63.0956 -41.2478 276° West  Level Estimated
11:40AM 63.1091 -41.5265 276° West  Level Estimated
11:41AM 63.1220 -41.8054 276° West  Level Estimated
11:42AM 63.1344 -42.0845 276° West  Level Estimated
11:43AM 63.1462 -42.3639 275° West  Level Estimated
11:44AM 63.1575 -42.6435 275° West  Level Estimated
11:45AM 63.1683 -42.9234 275° West  Level Estimated
11:46AM 63.1784 -43.2034 275° West  Level Estimated
11:47AM 63.1881 -43.4836 274° West  Level Estimated
11:48AM 63.1972 -43.7640 274° West  Level Estimated
11:49AM 63.2057 -44.0446 274° West  Level Estimated
11:50AM 63.2136 -44.3253 274° West  Level Estimated
11:51AM 63.2211 -44.6062 273° West  Level Estimated
11:52AM 63.2279 -44.8872 273° West  Level Estimated
11:53AM 63.2342 -45.1683 273° West  Level Estimated
11:54AM 63.2400 -45.4496 273° West  Level Estimated
11:55AM 63.2452 -45.7310 272° West  Level Estimated
11:56AM 63.2499 -46.0124 272° West  Level Estimated
11:57AM 63.2539 -46.2940 272° West  Level Estimated
11:58AM 63.2575 -46.5756 272° West  Level Estimated
11:59AM 63.2605 -46.8573 271° West  Level Estimated
12:00PM 63.2629 -47.1390 271° West  Level Estimated
12:01PM 63.2648 -47.4208 271° West  Level Estimated
12:02PM 63.2661 -47.7026 271° West  Level Estimated
12:03PM 63.2668 -47.9845 270° West  Level Estimated
12:04PM 63.2670 -48.2663 270° West  Level Estimated
12:05PM 63.2666 -48.5481 270° West  Level Estimated
12:05PM 64.0260 -50.2730 270° West 470 541 35,000  Level FlightAware
12:06PM 63.2657 -48.8300 270° West  Level Estimated
12:06PM 64.0320 -50.4780 274° West 471 542 35,000  Level FlightAware
12:07PM 64.0380 -50.6760 274° West 470 541 35,000  Level FlightAware
12:08PM 64.0440 -50.8910 274° West 469 540 35,000  Level FlightAware
12:08PM 64.0490 -51.0590 274° West 467 537 35,000  Level FlightAware
12:09PM 64.0540 -51.2440 274° West 466 536 35,000  Level FlightAware
12:10PM 64.0590 -51.4330 274° West 467 537 35,000  Level FlightAware
12:10PM 64.0640 -51.6500 273° West 470 541 35,000  Level FlightAware
12:11PM 64.0700 -51.9380 273° West 471 542 35,000  Level FlightAware
12:12PM 64.0740 -52.1320 273° West 468 539 35,000  Level FlightAware
12:12PM 64.0780 -52.3480 273° West 465 535 35,000  Level FlightAware
12:13PM 64.0820 -52.5450 273° West 461 531 35,000  Level FlightAware
12:14PM 64.0850 -52.7470 272° West 458 527 35,000  Level FlightAware
12:15PM 64.0880 -52.9580 272° West 455 524 35,000  Level FlightAware
12:15PM 64.0900 -53.0820 272° West 453 521 35,000  Level FlightAware
12:16PM 64.0930 -53.2770 272° West 452 520 35,000  Level FlightAware
12:16PM 64.0930 -53.3830 270° West 452 520 35,000  Level FlightAware
12:17PM 64.0950 -53.5780 271° West 452 520 35,000  Level FlightAware
12:18PM 64.0960 -53.7320 271° West 452 520 35,000  Level FlightAware
12:19PM 64.0970 -53.9280 271° West 452 520 35,000  Level FlightAware
12:19PM 64.0990 -54.0820 272° West 452 520 35,000  Level FlightAware
12:20PM 64.1000 -54.3140 271° West 452 520 35,000  Level FlightAware
12:21PM 64.1010 -54.4610 271° West 452 520 35,000  Level FlightAware
12:21PM 64.1020 -54.5990 271° West 452 520 35,000  Level FlightAware
12:22PM 64.1040 -54.8310 271° West 452 520 35,000  Level FlightAware
12:23PM 64.1050 -54.9860 271° West 452 520 35,000  Level FlightAware
12:24PM 64.1060 -55.1360 271° West 452 520 35,000  Level FlightAware
12:24PM 64.1080 -55.3360 271° West 452 520 35,000  Level FlightAware
12:25PM 64.1090 -55.4820 271° West 452 520 35,000  Level FlightAware
12:26PM 64.1100 -55.6900 271° West 452 520 35,000  Level FlightAware
12:26PM 64.1333 -56.2000 271° West 450 518 35,000  Level Gander Center
12:27PM 64.1167 -56.5167 263° West 450 518 35,000  Level Gander Center
12:28PM 64.1167 -56.7833 270° West 450 518 35,000  Level Gander Center
12:29PM 64.1000 -56.9667 258° West 450 518 35,000  Level Montreal Center
12:30PM 64.1167 -57.3500 276° West 450 518 35,000  Level Gander Center
12:31PM 64.1000 -57.6500 263° West 450 518 35,000  Level Gander Center
12:32PM 64.1000 -57.9167 270° West 450 518 35,000  Level Gander Center
12:33PM 64.1000 -58.2167 270° West 450 518 35,000  Level Gander Center
12:34PM 64.0833 -58.4833 262° West 450 518 35,000  Level Gander Center
12:35PM 64.0667 -58.7833 263° West 450 518 35,000  Level Gander Center
12:36PM 64.0833 -59.0500 278° West 450 518 35,000  Level Gander Center
12:37PM 64.0500 -59.2500 249° West 450 518 35,000  Level Montreal Center
12:38PM 64.0500 -59.6167 270° West 460 529 35,000  Level Gander Center
12:39PM 64.0333 -59.9167 263° West 460 529 35,000  Level Gander Center
12:40PM 64.0333 -60.1833 270° West 460 529 35,000  Level Gander Center
12:41PM 64.0500 -60.4833 277° West 460 529 35,000  Level Gander Center
12:42PM 64.0500 -60.7500 270° West 460 529 35,000  Level Gander Center
12:43PM 64.0500 -61.0500 270° West 460 529 35,000 240 Level Gander Center
12:44PM 64.0500 -61.3167 270° West 460 529 35,500 480 Climbing Gander Center
12:45PM 64.0500 -61.6667 270° West 480 552 36,000 240 Climbing Gander Center
12:46PM 64.0500 -61.9667 270° West 480 552 36,000  Level Gander Center
12:47PM 64.0500 -62.2667 270° West 480 552 36,000  Level Gander Center
12:48PM 64.0333 -62.5333 262° West 470 541 36,000  Level Gander Center
12:49PM 64.0333 -62.8333 270° West 470 541 36,000  Level Gander Center
12:50PM 64.0167 -63.0500 260° West 470 541 36,000  Level Montreal Center
12:51PM 63.9833 -63.3333 255° West 470 541 36,000  Level Montreal Center
12:52PM 63.9667 -63.6167 262° West 470 541 36,000  Level Montreal Center
12:53PM 63.9167 -63.9000 248° West 470 541 36,000  Level Montreal Center
12:54PM 63.8667 -64.1833 248° West 470 541 36,000  Level Montreal Center
12:55PM 63.8500 -64.4667 263° West 470 541 36,000  Level Montreal Center
12:56PM 63.8000 -64.7500 248° West 470 541 36,000  Level Montreal Center
12:57PM 63.7667 -65.0333 255° West 470 541 36,000  Level Montreal Center
12:58PM 63.7333 -65.3167 255° West 470 541 36,000  Level Montreal Center
12:59PM 63.6833 -65.6000 248° West 470 541 36,000  Level Montreal Center
01:00PM 63.6667 -65.8667 262° West 470 541 36,000  Level Montreal Center
01:01PM 63.6167 -66.1500 248° West 470 541 36,000  Level Montreal Center
01:02PM 63.5667 -66.4333 248° West 470 541 36,000  Level Montreal Center
01:03PM 63.5333 -66.7167 255° West 480 552 36,000  Level Montreal Center
01:04PM 63.4333 -66.8667 214° Southwest 480 552 36,000  Level Edmonton Center
01:05PM 63.3833 -67.1000 245° Southwest 480 552 36,000  Level Edmonton Center
01:06PM 63.3333 -67.4000 250° West 490 564 36,000  Level Edmonton Center
01:07PM 63.3000 -67.6833 255° West 490 564 36,000  Level Edmonton Center
01:08PM 63.2500 -67.9667 249° West 490 564 36,000  Level Edmonton Center
01:09PM 63.2000 -68.2500 249° West 490 564 36,000  Level Edmonton Center
01:10PM 63.1500 -68.5333 249° West 490 564 36,000  Level Edmonton Center
01:11PM 63.1000 -68.8333 250° West 500 575 36,000  Level Edmonton Center
01:12PM 63.0667 -69.1000 255° West 500 575 36,000  Level Edmonton Center
01:13PM 63.0667 -69.5667 270° West 490 564 36,000  Level Montreal Center
01:14PM 63.0167 -69.8333 248° West 490 564 36,000  Level Montreal Center
01:15PM 62.9667 -70.1000 248° West 490 564 36,000  Level Montreal Center
01:16PM 62.9167 -70.4000 250° West 490 564 36,000  Level Montreal Center
01:17PM 62.8667 -70.6667 248° West 490 564 36,000  Level Montreal Center
01:18PM 62.8167 -70.9333 248° West 490 564 36,000  Level Montreal Center
01:19PM 62.7167 -71.0333 205° Southwest 500 575 36,000  Level Edmonton Center
01:20PM 62.6667 -71.3500 251° West 500 575 36,000  Level Edmonton Center
01:21PM 62.6000 -71.6333 243° Southwest 500 575 36,000  Level Edmonton Center
01:22PM 62.5500 -71.9167 249° West 500 575 36,000  Level Edmonton Center
01:23PM 62.5000 -72.1833 248° West 500 575 36,000  Level Edmonton Center
01:24PM 62.4333 -72.4667 243° Southwest 510 587 36,000  Level Edmonton Center
01:25PM 62.3833 -72.7167 247° West 500 575 36,000  Level Edmonton Center
01:26PM 62.3167 -73.0000 243° Southwest 500 575 36,000  Level Edmonton Center
01:27PM 62.2667 -73.2833 249° West 500 575 36,000  Level Edmonton Center
01:28PM 62.2167 -73.5333 247° West 500 575 36,000  Level Edmonton Center
01:29PM 62.1500 -73.8167 243° Southwest 500 575 36,000  Level Edmonton Center
01:30PM 62.0833 -74.1167 245° Southwest 500 575 36,000  Level Edmonton Center
01:31PM 62.0333 -74.3667 247° West 510 587 36,000  Level Edmonton Center
01:32PM 61.9667 -74.6333 242° Southwest 510 587 36,000  Level Edmonton Center
01:33PM 61.9000 -74.9167 244° Southwest 510 587 36,000  Level Edmonton Center
01:34PM 61.8500 -75.1667 247° West 500 575 36,000  Level Edmonton Center
01:35PM 61.7833 -75.4333 242° Southwest 510 587 36,000  Level Edmonton Center
01:36PM 61.7167 -75.7333 245° Southwest 510 587 36,000  Level Edmonton Center
01:37PM 61.6667 -75.9833 247° West 510 587 36,000  Level Edmonton Center
01:38PM 61.6000 -76.2500 242° Southwest 510 587 36,000  Level Edmonton Center
01:39PM 61.5333 -76.5000 241° Southwest 510 587 36,000  Level Edmonton Center
01:40PM 61.4667 -76.7500 241° Southwest 510 587 36,000  Level Edmonton Center
01:41PM 61.4000 -77.0167 243° Southwest 510 587 36,000  Level Edmonton Center
01:42PM 61.3333 -77.3000 244° Southwest 510 587 36,000  Level Edmonton Center
01:43PM 61.2833 -77.5500 247° West 510 587 36,000  Level Edmonton Center
01:44PM 61.2000 -77.8167 237° Southwest 510 587 36,000  Level Edmonton Center
01:45PM 61.1333 -78.0667 241° Southwest 510 587 36,000  Level Edmonton Center
01:46PM 61.0500 -78.3167 236° Southwest 510 587 36,000  Level Edmonton Center
01:47PM 61.0000 -78.6000 250° West 510 587 36,000  Level Edmonton Center
01:48PM 60.9500 -79.0000 256° West 510 587 36,000  Level Montreal Center
01:49PM 60.9000 -79.2667 249° West 500 575 36,000  Level Montreal Center
01:50PM 60.7833 -79.3333 196° South 500 575 36,000  Level Edmonton Center
01:51PM 60.7167 -79.5833 241° Southwest 500 575 36,000  Level Edmonton Center
01:52PM 60.6333 -79.8333 236° Southwest 510 587 36,000  Level Edmonton Center
01:53PM 60.5667 -80.0833 242° Southwest 510 587 36,000  Level Edmonton Center
01:54PM 60.4833 -80.3333 236° Southwest 510 587 36,000  Level Edmonton Center
01:55PM 60.4000 -80.5500 232° Southwest 500 575 36,000  Level Edmonton Center
01:56PM 60.3167 -80.7833 234° Southwest 500 575 36,000  Level Edmonton Center
01:57PM 60.2333 -81.0333 236° Southwest 500 575 36,000  Level Edmonton Center
01:58PM 60.1500 -81.2667 234° Southwest 500 575 36,000  Level Edmonton Center
01:59PM 60.0667 -81.4833 232° Southwest 500 575 36,000  Level Edmonton Center
02:00PM 59.9833 -81.7167 235° Southwest 510 587 36,000  Level Edmonton Center
02:01PM 59.9000 -81.9667 236° Southwest 500 575 36,000  Level Edmonton Center
02:02PM 59.8167 -82.1667 230° Southwest 500 575 36,000  Level Edmonton Center
02:03PM 59.7333 -82.4000 235° Southwest 500 575 36,000  Level Edmonton Center
02:04PM 59.6500 -82.6000 231° Southwest 500 575 36,000  Level Edmonton Center
02:05PM 59.5667 -82.8333 235° Southwest 500 575 36,000  Level Edmonton Center
02:06PM 59.4833 -83.0667 235° Southwest 500 575 36,000  Level Edmonton Center
02:07PM 59.4000 -83.2667 231° Southwest 500 575 36,000  Level Edmonton Center
02:08PM 59.3000 -83.5000 230° Southwest 490 564 36,000  Level Edmonton Center
02:09PM 59.2333 -83.6833 235° Southwest 490 564 36,000  Level Edmonton Center
02:10PM 59.1500 -83.9167 235° Southwest 490 564 36,000  Level Edmonton Center
02:11PM 59.0500 -84.1167 226° Southwest 490 564 36,000  Level Edmonton Center
02:12PM 58.9667 -84.3333 233° Southwest 500 575 36,000  Level Edmonton Center
02:13PM 58.8833 -84.5333 231° Southwest 490 564 36,000  Level Edmonton Center
02:14PM 58.8167 -84.7500 239° Southwest 490 564 36,000  Level Edmonton Center
02:15PM 58.7167 -84.9333 224° Southwest 490 564 36,000  Level Edmonton Center
02:16PM 58.6667 -85.3167 256° West 490 564 36,000  Level Montreal Center
02:17PM 58.5333 -85.3500 187° South 490 564 36,000  Level Edmonton Center
02:18PM 58.4667 -85.5667 240° Southwest 490 564 36,000  Level Edmonton Center
02:19PM 58.3667 -85.7500 224° Southwest 490 564 36,000  Level Edmonton Center
02:20PM 58.2833 -85.9667 234° Southwest 490 564 36,000  Level Edmonton Center
02:21PM 58.1833 -86.1500 224° Southwest 490 564 36,000  Level Edmonton Center
02:22PM 58.1000 -86.3667 234° Southwest 490 564 36,000  Level Edmonton Center
02:23PM 58.0167 -86.5333 227° Southwest 490 564 36,000  Level Edmonton Center
02:24PM 57.9333 -86.7500 234° Southwest 480 552 36,000  Level Edmonton Center
02:26PM 57.7500 -87.1333 228° Southwest 480 552 36,000  Level Edmonton Center
02:27PM 57.6667 -87.3167 230° Southwest 480 552 36,000  Level Edmonton Center
02:28PM 57.5667 -87.5333 229° Southwest 480 552 36,000  Level Edmonton Center
02:29PM 57.4833 -87.7000 227° Southwest 480 552 36,000  Level Edmonton Center
02:30PM 57.4000 -87.9000 232° Southwest 480 552 36,000  Level Edmonton Center
02:31PM 57.3167 -88.0667 227° Southwest 480 552 36,000  Level Edmonton Center
02:32PM 57.2167 -88.2500 225° Southwest 470 541 36,000  Level Edmonton Center
02:33PM 57.1333 -88.4500 233° Southwest 470 541 36,000  Level Edmonton Center
02:34PM 57.0333 -88.6167 222° Southwest 470 541 36,000  Level Edmonton Center
02:35PM 56.9667 -88.7833 234° Southwest 470 541 36,000  Level Edmonton Center
02:36PM 56.8667 -88.9833 228° Southwest 470 541 36,000  Level Edmonton Center
02:37PM 56.7833 -89.1500 228° Southwest 470 541 36,000  Level Edmonton Center
02:38PM 56.6833 -89.3167 223° Southwest 470 541 36,000  Level Edmonton Center
02:39PM 56.6000 -89.5167 233° Southwest 460 529 36,000  Level Edmonton Center
02:40PM 56.5000 -89.6833 223° Southwest 460 529 36,000  Level Edmonton Center
02:41PM 56.4167 -89.8333 225° Southwest 460 529 36,000 480 Level Edmonton Center
02:42PM 56.3333 -90.0333 233° Southwest 470 541 37,000 900 Climbing Edmonton Center
02:43PM 56.2333 -90.2000 223° Southwest 470 541 37,800 480 Climbing Edmonton Center
02:44PM 56.1500 -90.3833 231° Southwest 470 541 38,000 60 Climbing Edmonton Center
02:45PM 56.0667 -90.5500 228° Southwest 470 541 38,000  Level Edmonton Center
02:46PM 55.9667 -90.7333 226° Southwest 470 541 38,000  Level Edmonton Center
02:47PM 55.8833 -90.8833 225° Southwest 470 541 38,000  Level Edmonton Center
02:48PM 55.7667 -91.0500 219° Southwest 470 541 38,000  Level Edmonton Center
02:49PM 55.7000 -91.2333 237° Southwest 470 541 38,000  Level Edmonton Center
02:50PM 55.5833 -91.4000 219° Southwest 470 541 38,000  Level Edmonton Center
02:51PM 55.5000 -91.5500 226° Southwest 470 541 38,000  Level Edmonton Center
02:52PM 55.4000 -91.7333 226° Southwest 470 541 38,000  Level Edmonton Center
02:53PM 55.3167 -91.8833 226° Southwest 470 541 38,000  Level Edmonton Center
02:54PM 55.2167 -92.0333 221° Southwest 470 541 38,000  Level Edmonton Center
02:55PM 55.1333 -92.2167 232° Southwest 460 529 38,000  Level Edmonton Center
02:56PM 55.0500 -92.3667 226° Southwest 470 541 38,000  Level Edmonton Center
02:57PM 54.9500 -92.5167 221° Southwest 470 541 38,000  Level Edmonton Center
02:58PM 54.8500 -92.7000 227° Southwest 470 541 38,000  Level Edmonton Center
02:59PM 54.7500 -92.8500 221° Southwest 470 541 38,000  Level Edmonton Center
03:00PM 54.6667 -93.0167 229° Southwest 470 541 38,000  Level Edmonton Center
03:01PM 54.5667 -93.1833 224° Southwest 460 529 38,000  Level Edmonton Center
03:02PM 54.4833 -93.3167 223° Southwest 460 529 38,000  Level Edmonton Center
03:03PM 54.3833 -93.5000 227° Southwest 470 541 38,000  Level Edmonton Center
03:04PM 54.2833 -93.6333 218° Southwest 480 552 38,000  Level Edmonton Center
03:05PM 54.2000 -93.7833 227° Southwest 480 552 38,000  Level Edmonton Center
03:06PM 54.1000 -93.9500 224° Southwest 470 541 38,000  Level Edmonton Center
03:07PM 54.0000 -94.1000 221° Southwest 480 552 38,000  Level Edmonton Center
03:08PM 53.9000 -94.2667 225° Southwest 470 541 38,000  Level Edmonton Center
03:09PM 53.8167 -94.4167 227° Southwest 470 541 38,000  Level Edmonton Center
03:10PM 53.7000 -94.5500 214° Southwest 450 518 38,000  Level Edmonton Center
03:11PM 53.6167 -94.7000 227° Southwest 460 529 38,000  Level Edmonton Center
03:12PM 53.5333 -94.8667 230° Southwest 460 529 38,000  Level Edmonton Center
03:13PM 53.4167 -95.0000 214° Southwest 470 541 38,000  Level Edmonton Center
03:14PM 53.3333 -95.1667 230° Southwest 470 541 38,000  Level Edmonton Center
03:15PM 53.2333 -95.3000 219° Southwest 470 541 38,000  Level Edmonton Center
03:16PM 53.1333 -95.4667 225° Southwest 470 541 38,000  Level Edmonton Center
03:17PM 53.0333 -95.6000 219° Southwest 480 552 38,000  Level Edmonton Center
03:18PM 52.9333 -95.7667 225° Southwest 480 552 38,000  Level Edmonton Center
03:19PM 52.8333 -95.9000 219° Southwest 470 541 38,000  Level Edmonton Center
03:20PM 52.7333 -96.0333 219° Southwest 470 541 38,000  Level Edmonton Center
03:21PM 52.6333 -96.2000 225° Southwest 470 541 38,000  Level Edmonton Center
03:22PM 52.5500 -96.3333 224° Southwest 470 541 38,000  Level Edmonton Center
03:23PM 52.4333 -96.5000 221° Southwest 470 541 38,000  Level Edmonton Center
03:24PM 52.3500 -96.6167 221° Southwest 470 541 38,000  Level Edmonton Center
03:25PM 52.2333 -96.7500 215° Southwest 470 541 38,000  Level Edmonton Center
03:26PM 52.1500 -96.9167 231° Southwest 470 541 38,000  Level Edmonton Center
03:27PM 52.0333 -97.0500 215° Southwest 470 541 38,000  Level Edmonton Center
03:28PM 51.9500 -97.2000 228° Southwest 460 529 38,000  Level Edmonton Center
03:29PM 51.8500 -97.3333 219° Southwest 460 529 38,000  Level Edmonton Center
03:30PM 51.7500 -97.4500 216° Southwest 470 541 38,000  Level Edmonton Center
03:31PM 51.6500 -97.6000 223° Southwest 470 541 38,000  Level Edmonton Center
03:37PM 51.1370 -98.3690 223° Southwest 470 541 38,000  Level FlightAware
03:38PM 51.0600 -98.4710 220° Southwest 470 541 38,000  Level FlightAware
03:38PM 50.9710 -98.5900 220° Southwest 473 544 38,000  Level FlightAware
03:39PM 50.9100 -98.6690 219° Southwest 474 545 38,000  Level FlightAware
03:40PM 50.8490 -98.7500 220° Southwest 473 544 38,000  Level FlightAware
03:40PM 50.7830 -98.8350 219° Southwest 473 544 38,000  Level FlightAware
03:41PM 50.7190 -98.9190 220° Southwest 472 543 38,000  Level FlightAware
03:42PM 50.6530 -99.0040 219° Southwest 472 543 38,000  Level FlightAware
03:42PM 50.5710 -99.1100 219° Southwest 473 544 38,000  Level FlightAware
03:43PM 50.4960 -99.2070 219° Southwest 473 544 38,000  Level FlightAware
03:44PM 50.4280 -99.2940 219° Southwest 474 545 38,000  Level FlightAware
03:44PM 50.3530 -99.3890 219° Southwest 472 543 38,000  Level FlightAware
03:45PM 50.2850 -99.4760 219° Southwest 470 541 38,000  Level FlightAware
03:46PM 50.2290 -99.5470 219° Southwest 471 542 38,000  Level FlightAware
03:47PM 50.1600 -99.6330 219° Southwest 469 540 38,000  Level FlightAware
03:47PM 50.0830 -99.7300 219° Southwest 468 539 38,000  Level FlightAware
03:48PM 50.0110 -99.8190 218° Southwest 470 541 38,000  Level FlightAware
03:49PM 49.9440 -99.9040 219° Southwest 470 541 38,000  Level FlightAware
03:49PM 49.8670 -99.9890 215° Southwest 475 547 38,000  Level FlightAware
03:50PM 49.7880 -100.0670 213° Southwest 475 547 38,000  Level FlightAware
03:51PM 49.7150 -100.1400 213° Southwest 474 545 38,000  Level FlightAware
03:51PM 49.6570 -100.1960 212° Southwest 475 547 38,000  Level FlightAware
03:52PM 49.5880 -100.2640 213° Southwest 476 548 38,000  Level FlightAware
03:52PM 49.5180 -100.3320 212° Southwest 475 547 38,000  Level FlightAware
03:53PM 49.4530 -100.3960 213° Southwest 477 549 38,000  Level FlightAware
03:54PM 49.3920 -100.4550 212° Southwest 477 549 38,000  Level FlightAware
03:54PM 49.2950 -100.5490 212° Southwest 477 549 38,000  Level FlightAware
03:55PM 49.2280 -100.6140 212° Southwest 476 548 38,000  Level FlightAware
03:56PM 49.1530 -100.6860 212° Southwest 476 548 38,000  Level FlightAware
03:56PM 49.0800 -100.7560 212° Southwest 474 545 38,000  Level FlightAware
03:57PM 49.0150 -100.8180 212° Southwest 472 543 38,000  Level FlightAware
03:58PM 48.9490 -100.8800 212° Southwest 472 543 38,000  Level FlightAware
03:58PM 48.8900 -100.9370 212° Southwest 472 543 38,000  Level FlightAware
03:59PM 48.8210 -101.0030 212° Southwest 470 541 38,000  Level FlightAware
04:00PM 48.7580 -101.0620 212° Southwest 470 541 38,000  Level FlightAware
04:00PM 48.7050 -101.1120 212° Southwest 470 541 38,000  Level FlightAware
04:01PM 48.6480 -101.1660 212° Southwest 470 541 38,000  Level FlightAware
04:02PM 48.5260 -101.2810 212° Southwest 470 541 38,000  Level FlightAware
04:03PM 48.4710 -101.3330 212° Southwest 470 541 38,000  Level FlightAware
04:03PM 48.3950 -101.4050 212° Southwest 470 541 38,000  Level FlightAware
04:04PM 48.3380 -101.4580 212° Southwest 470 541 38,000  Level FlightAware
04:05PM 48.2800 -101.5130 212° Southwest 470 541 38,000  Level FlightAware
04:06PM 48.1840 -101.6030 212° Southwest 470 541 38,000  Level FlightAware
04:07PM 48.1000 -101.6820 212° Southwest 470 541 38,000  Level FlightAware
04:07PM 48.0450 -101.7330 212° Southwest 470 541 38,000  Level FlightAware
04:08PM 47.9890 -101.7860 212° Southwest 470 541 38,000 -120 Level FlightAware
04:08PM 47.7586 -101.9833 212° Southwest 470 541 37,900  Descending Salt Lake Center
04:09PM 47.6439 -102.0822 210° Southwest 471 542 38,000  Climbing Salt Lake Center
04:10PM 47.5336 -102.1833 212° Southwest 470 541 37,900 -60 Descending Salt Lake Center
04:11PM 47.4219 -102.2817 211° Southwest 469 540 37,900  Level Salt Lake Center
04:12PM 47.3111 -102.3792 211° Southwest 467 537 38,000  Climbing Salt Lake Center
04:14PM 47.2000 -102.4764 211° Southwest 466 536 38,000  Level Salt Lake Center
04:15PM 47.0656 -102.5942 211° Southwest 466 536 38,000  Level Salt Lake Center
04:16PM 46.9525 -102.6914 210° Southwest 467 537 38,000  Level Salt Lake Center
04:17PM 46.8417 -102.7972 213° Southwest 475 547 38,000 -60 Level Salt Lake Center
04:18PM 46.7442 -102.9283 223° Southwest 478 550 37,900  Descending Salt Lake Center
04:19PM 46.6500 -103.0589 224° Southwest 476 548 38,000  Climbing Salt Lake Center
04:20PM 46.5561 -103.1861 223° Southwest 470 541 37,900  Descending Salt Lake Center
04:21PM 46.4633 -103.3122 223° Southwest 465 535 38,000  Climbing Salt Lake Center
04:22PM 46.3506 -103.4617 222° Southwest 462 532 38,000  Level Salt Lake Center
04:23PM 46.2583 -103.5856 223° Southwest 458 527 38,000  Level Salt Lake Center
04:24PM 46.1658 -103.7053 222° Southwest 452 520 38,000  Level Salt Lake Center
04:25PM 46.0742 -103.8283 223° Southwest 451 519 38,000 -60 Level Salt Lake Center
04:26PM 45.9811 -103.9483 222° Southwest 451 519 37,900 -60 Descending Salt Lake Center
04:27PM 45.8897 -104.0714 223° Southwest 450 518 37,900  Level Salt Lake Center
04:28PM 45.7958 -104.1911 222° Southwest 452 520 38,000  Climbing Salt Lake Center
04:30PM 45.6281 -104.4106 222° Southwest 456 525 38,000  Level Salt Lake Center
04:31PM 45.5472 -104.5161 222° Southwest 455 524 38,000  Level Salt Lake Center
04:32PM 45.4353 -104.6606 222° Southwest 455 524 38,000  Level Salt Lake Center
04:33PM 45.3433 -104.7794 222° Southwest 451 519 38,000  Level Salt Lake Center
04:34PM 45.2481 -104.8989 221° Southwest 453 521 38,000  Level Salt Lake Center
04:35PM 45.1536 -105.0167 221° Southwest 454 522 38,000  Level Salt Lake Center
04:35PM 45.0992 -105.0881 223° Southwest 452 520 38,000  Level Denver Center
04:36PM 44.9872 -105.2281 222° Southwest 448 516 38,000  Level Denver Center
04:37PM 44.8950 -105.3444 222° Southwest 447 514 38,000  Level Denver Center
04:38PM 44.8014 -105.4606 221° Southwest 449 517 38,000  Level Denver Center
04:40PM 44.7072 -105.5772 221° Southwest 450 518 38,000  Level Denver Center
04:41PM 44.6125 -105.6944 221° Southwest 453 521 38,000  Level Denver Center
04:42PM 44.5175 -105.8103 221° Southwest 453 521 38,000  Level Denver Center
04:43PM 44.4081 -105.9450 221° Southwest 450 518 38,000  Level Denver Center
04:44PM 44.3178 -106.0536 221° Southwest 449 517 38,000  Level Denver Center
04:45PM 44.2172 -106.1744 221° Southwest 446 513 38,000  Level Denver Center
04:46PM 44.1253 -106.2856 221° Southwest 443 510 38,000  Level Denver Center
04:47PM 44.0331 -106.3961 221° Southwest 451 519 38,000  Level Denver Center
04:48PM 43.9261 -106.5203 220° Southwest 450 518 38,000  Level Denver Center
04:49PM 43.8319 -106.6233 218° Southwest 451 519 38,000  Level Denver Center
04:50PM 43.7231 -106.7478 220° Southwest 455 524 38,000  Level Denver Center
04:51PM 43.6289 -106.8517 219° Southwest 454 522 38,000  Level Denver Center
04:52PM 43.5181 -106.9714 218° Southwest 453 521 38,000  Level Denver Center
04:53PM 43.4208 -107.0800 219° Southwest 450 518 38,000  Level Denver Center
04:54PM 43.3231 -107.1878 219° Southwest 451 519 38,000  Level Denver Center
04:55PM 43.2447 -107.2725 218° Southwest 448 516 38,000  Level Denver Center
04:56PM 43.1294 -107.3986 219° Southwest 442 509 38,000  Level Denver Center
04:57PM 43.0325 -107.5033 218° Southwest 443 510 38,000  Level Denver Center
04:58PM 42.9175 -107.6272 218° Southwest 442 509 38,000  Level Denver Center
04:59PM 42.8244 -107.7275 218° Southwest 444 511 38,000  Level Denver Center
05:00PM 42.7158 -107.8442 218° Southwest 445 512 38,000  Level Denver Center
05:06PM 42.1250 -108.4650 218° Southwest 444 511 38,000  Level FlightAware
05:07PM 42.0640 -108.5290 218° Southwest 444 511 38,000  Level FlightAware
05:08PM 41.9920 -108.6030 217° Southwest 446 513 38,000  Level FlightAware
05:08PM 41.9200 -108.6780 218° Southwest 445 512 38,000  Level FlightAware
05:09PM 41.8580 -108.7420 218° Southwest 444 511 38,000  Level FlightAware
05:10PM 41.7920 -108.8090 217° Southwest 445 512 38,000  Level FlightAware
05:10PM 41.7280 -108.8750 218° Southwest 445 512 38,000  Level FlightAware
05:11PM 41.6810 -108.9230 217° Southwest 444 511 38,000 60 Level FlightAware
05:12PM 41.5920 -109.0160 218° Southwest 442 509 38,100 540 Climbing FlightAware
05:12PM 41.5390 -109.0830 223° Southwest 436 502 38,800 1,140 Climbing FlightAware
05:13PM 41.4810 -109.1600 225° Southwest 433 498 39,600 900 Climbing FlightAware
05:14PM 41.4240 -109.2350 225° Southwest 433 498 40,000 240 Climbing FlightAware
05:14PM 41.3650 -109.3130 225° Southwest 433 498 40,000  Level FlightAware
05:15PM 41.3050 -109.3920 225° Southwest 435 501 40,000  Level FlightAware
05:16PM 41.2410 -109.4750 224° Southwest 436 502 40,000  Level FlightAware
05:16PM 41.1840 -109.5500 225° Southwest 435 501 40,000  Level FlightAware
05:17PM 41.1300 -109.6200 224° Southwest 436 502 40,000  Level FlightAware
05:18PM 41.0700 -109.6980 224° Southwest 436 502 40,000  Level FlightAware
05:18PM 41.0090 -109.7760 224° Southwest 435 501 40,000  Level FlightAware
05:19PM 40.9570 -109.8440 225° Southwest 434 499 40,000  Level FlightAware
05:20PM 40.9000 -109.9170 224° Southwest 434 499 40,000  Level FlightAware
05:20PM 40.8460 -109.9870 224° Southwest 437 503 40,000  Level FlightAware
05:21PM 40.7640 -110.0920 224° Southwest 436 502 40,000  Level FlightAware
05:22PM 40.7060 -110.1660 224° Southwest 435 501 40,000  Level FlightAware
05:23PM 40.6490 -110.2380 224° Southwest 434 499 40,000  Level FlightAware
05:23PM 40.5990 -110.3020 224° Southwest 434 499 40,000  Level FlightAware
05:24PM 40.5480 -110.3650 223° Southwest 434 499 40,000  Level FlightAware
05:25PM 40.4620 -110.4750 224° Southwest 437 503 40,000  Level FlightAware
05:25PM 40.3960 -110.5580 224° Southwest 437 503 40,000  Level FlightAware
05:26PM 40.3310 -110.6400 224° Southwest 438 504 40,000  Level FlightAware
05:27PM 40.2710 -110.7150 224° Southwest 438 504 40,000  Level FlightAware
05:28PM 40.2130 -110.7870 223° Southwest 437 503 40,000  Level FlightAware
05:29PM 40.1020 -110.9240 223° Southwest 437 503 40,000  Level FlightAware
05:30PM 40.0550 -110.9820 223° Southwest 437 503 40,000  Level FlightAware
05:30PM 40.0080 -111.0390 223° Southwest 437 503 40,000  Level FlightAware
05:31PM 39.9450 -111.1150 223° Southwest 437 503 40,000  Level FlightAware
05:32PM 39.8970 -111.1730 223° Southwest 437 503 40,000  Level FlightAware
05:33PM 39.8210 -111.2660 223° Southwest 437 503 40,000  Level FlightAware
05:33PM 39.7750 -111.3210 223° Southwest 437 503 40,000  Level FlightAware
05:34PM 39.7150 -111.3940 223° Southwest 437 503 40,000  Level FlightAware
05:35PM 39.6700 -111.4490 223° Southwest 437 503 40,000  Level FlightAware
05:35PM 39.6100 -111.5220 223° Southwest 437 503 40,000  Level FlightAware
05:36PM 39.5640 -111.5770 223° Southwest 437 503 40,000  Level FlightAware
05:37PM 39.5180 -111.6330 223° Southwest 437 503 40,000  Level FlightAware
05:37PM 39.4690 -111.6920 223° Southwest 437 503 40,000  Level FlightAware
05:38PM 39.2810 -111.9290 224° Southwest 449 517 40,000  Level FlightAware
05:39PM 39.2340 -111.9850 223° Southwest 449 517 40,000  Level FlightAware
05:39PM 39.1720 -112.0600 223° Southwest 449 517 40,000  Level FlightAware
05:40PM 39.1100 -112.1340 223° Southwest 449 517 40,000  Level FlightAware
05:41PM 39.0620 -112.1910 223° Southwest 449 517 40,000  Level FlightAware
05:42PM 38.9820 -112.2870 223° Southwest 449 517 40,000  Level FlightAware
05:43PM 38.9020 -112.3830 223° Southwest 449 517 40,000  Level FlightAware
05:44PM 38.8540 -112.4410 223° Southwest 449 517 40,000  Level FlightAware
05:44PM 38.7920 -112.5150 223° Southwest 449 517 40,000  Level FlightAware
05:45PM 38.7450 -112.5720 223° Southwest 449 517 40,000  Level FlightAware
05:46PM 38.6970 -112.6290 223° Southwest 449 517 40,000  Level FlightAware
05:46PM 38.6350 -112.7030 223° Southwest 449 517 40,000  Level FlightAware
05:47PM 38.5880 -112.7590 223° Southwest 449 517 40,000  Level FlightAware
05:48PM 38.3575 -113.0136 223° Southwest 450 518 40,000  Level Salt Lake Center
05:49PM 38.2531 -113.1050 215° Southwest 457 526 40,000  Level Salt Lake Center
05:50PM 38.1456 -113.1886 211° Southwest 457 526 40,000  Level Salt Lake Center
05:56PM 37.4650 -113.5350 211° Southwest 463 533 40,000  Level FlightAware
05:57PM 37.3830 -113.5950 210° Southwest 460 529 40,000  Level FlightAware
05:57PM 37.3120 -113.6660 219° Southwest 449 517 40,000  Level FlightAware
05:58PM 37.2340 -113.7390 217° Southwest 441 507 40,000  Level FlightAware
05:59PM 37.1700 -113.7980 216° Southwest 439 505 40,000  Level FlightAware
05:59PM 37.1000 -113.8640 217° Southwest 439 505 40,000  Level FlightAware
06:00PM 37.0400 -113.9190 216° Southwest 439 505 40,000  Level FlightAware
06:01PM 36.9730 -113.9800 216° Southwest 440 506 40,000  Level FlightAware
06:01PM 36.9210 -114.0280 216° Southwest 442 509 40,000  Level FlightAware
06:02PM 36.8280 -114.1130 216° Southwest 442 509 40,000  Level FlightAware
06:03PM 36.7600 -114.1750 216° Southwest 443 510 40,000  Level FlightAware
06:04PM 36.6860 -114.2430 216° Southwest 442 509 40,000  Level FlightAware
06:04PM 36.6270 -114.2960 216° Southwest 442 509 40,000  Level FlightAware
06:05PM 36.5570 -114.3590 216° Southwest 443 510 40,000  Level FlightAware
06:06PM 36.4890 -114.4210 216° Southwest 444 511 40,000  Level FlightAware
06:06PM 36.4040 -114.4980 216° Southwest 445 512 40,000  Level FlightAware
06:07PM 36.3390 -114.5570 216° Southwest 445 512 40,000  Level FlightAware
06:08PM 36.2740 -114.6150 216° Southwest 446 513 40,000  Level FlightAware
06:08PM 36.2010 -114.6800 216° Southwest 446 513 40,000  Level FlightAware
06:09PM 36.1370 -114.7380 216° Southwest 446 513 40,000  Level FlightAware
06:10PM 36.0690 -114.7990 216° Southwest 448 516 40,000  Level FlightAware
06:10PM 36.0040 -114.8640 219° Southwest 452 520 40,000  Level FlightAware
06:11PM 35.9380 -114.9450 225° Southwest 453 521 40,000  Level FlightAware
06:12PM 35.8780 -115.0190 225° Southwest 453 521 40,000  Level FlightAware
06:13PM 35.8120 -115.0990 225° Southwest 452 520 40,000  Level FlightAware
06:13PM 35.7580 -115.1650 225° Southwest 452 520 40,000  Level FlightAware
06:14PM 35.6960 -115.2390 224° Southwest 451 519 40,000  Level FlightAware
06:15PM 35.6360 -115.3120 225° Southwest 450 518 40,000  Level FlightAware
06:15PM 35.5800 -115.3790 224° Southwest 446 513 40,000  Level FlightAware
06:16PM 35.5160 -115.4560 224° Southwest 446 513 40,000  Level FlightAware
06:17PM 35.4510 -115.5340 224° Southwest 445 512 40,000  Level FlightAware
06:17PM 35.4040 -115.5900 224° Southwest 444 511 40,000  Level FlightAware
06:18PM 35.3420 -115.6650 225° Southwest 444 511 40,000  Level FlightAware
06:18PM 35.3000 -115.7150 224° Southwest 444 511 40,000 -300 Level FlightAware
06:19PM 35.2470 -115.7780 224° Southwest 445 512 39,700 -1,440 Descending FlightAware
06:20PM 35.1600 -115.8820 224° Southwest 469 540 37,900 -1,560 Descending FlightAware
06:21PM 35.1030 -115.9500 224° Southwest 468 539 37,300 -1,800 Descending FlightAware
06:21PM 35.0290 -116.0370 224° Southwest 475 547 35,400 -1,680 Descending FlightAware
06:22PM 34.9690 -116.1080 224° Southwest 476 548 34,900 -420 Descending FlightAware
06:23PM 34.9200 -116.1650 224° Southwest 476 548 34,900  Level FlightAware
06:23PM 34.8560 -116.2410 224° Southwest 476 548 34,900  Level FlightAware
06:24PM 34.7880 -116.3200 224° Southwest 476 548 34,900  Level FlightAware
06:25PM 34.7400 -116.3770 224° Southwest 476 548 34,900  Level FlightAware
06:25PM 34.6870 -116.4390 224° Southwest 476 548 34,900 -4,080 Level FlightAware
06:26PM 34.5470 -116.6010 224° Southwest 482 555 29,000 -3,960 Descending FlightAware
06:27PM 34.4790 -116.6810 224° Southwest 485 558 29,000 -1,680 Level FlightAware
06:28PM 34.4050 -116.7670 224° Southwest 474 545 26,600 -3,300 Descending FlightAware
06:28PM 34.3420 -116.8400 224° Southwest 460 529 24,300 -3,300 Descending FlightAware
06:29PM 34.2770 -116.9150 224° Southwest 420 483 22,000 -3,180 Descending FlightAware
06:30PM 34.2240 -116.9750 223° Southwest 412 474 19,900 -2,220 Descending FlightAware
06:31PM 34.1640 -117.0440 224° Southwest 401 461 19,000 -660 Descending FlightAware
06:31PM 34.1100 -117.1110 226° Southwest 398 458 19,000 -1,020 Level FlightAware
06:32PM 34.0690 -117.1940 239° Southwest 396 456 17,600 -1,920 Descending FlightAware
06:33PM 34.0470 -117.2670 250° West 363 418 16,500 -1,980 Descending FlightAware
06:33PM 34.0390 -117.3410 263° West 346 398 15,100 -1,920 Descending FlightAware
06:34PM 34.0330 -117.4100 264° West 334 384 14,200 -2,220 Descending FlightAware
06:35PM 34.0310 -117.5060 269° West 332 382 11,900 -2,040 Descending FlightAware
06:35PM 34.0330 -117.5870 272° West 329 379 11,000 -1,260 Descending FlightAware
06:36PM 34.0250 -117.6650 263° West 328 377 10,100 -840 Descending FlightAware
06:37PM 34.0190 -117.7340 264° West 305 351 9,900 -600 Descending FlightAware
06:37PM 34.0150 -117.7760 263° West 288 331 9,500 -900 Descending FlightAware
06:38PM 34.0100 -117.8260 263° West 272 313 9,000 -1,140 Descending FlightAware
06:38PM 34.0060 -117.8620 262° West 268 308 8,400 -1,500 Descending FlightAware
06:39PM 34.0010 -117.9110 263° West 263 303 7,600 -1,560 Descending FlightAware
06:39PM 33.9970 -117.9480 263° West 261 300 6,900 -1,620 Descending FlightAware
06:40PM 33.9940 -117.9830 264° West 257 296 6,300 -1,200 Descending FlightAware
06:40PM 33.9910 -118.0150 264° West 256 295 5,900 -1,080 Descending FlightAware
06:40PM 33.9880 -118.0460 263° West 253 291 5,500 -1,020 Descending FlightAware
06:41PM 33.9830 -118.0930 263° West 248 285 5,000 -1,020 Descending FlightAware
06:41PM 33.9790 -118.1340 263° West 244 281 4,500 -1,380 Descending FlightAware
06:42PM 33.9750 -118.1720 263° West 243 280 3,800 -1,320 Descending FlightAware
06:42PM 33.9720 -118.2060 264° West 223 257 3,300 -1,080 Descending FlightAware
06:43PM 33.9690 -118.2340 263° West 208 239 2,900 -1,080 Descending FlightAware
06:43PM 33.9650 -118.2730 263° West 209 241 2,300 -1,020 Descending FlightAware
06:44PM 33.9620 -118.3000 262° West 194 223 1,900 -1,020 Descending FlightAware
06:44PM 33.9600 -118.3280 265° West 173 199 1,400 -780 Descending FlightAware
06:44PM 33.9590 -118.3350 260° West 157 181 1,300 -660 Descending FlightAware
06:45PM 33.9570 -118.3540 263° West 135 155 1,000 -780 Descending FlightAware
06:45PM 33.9550 -118.3750 263° West 134 154 700 -720 Descending FlightAware
06:46PM 33.9530 -118.3940 263° West 133 153 400 -360 Descending FlightAware
06:46PM 33.9500 -118.4190 262° West 133 153 300 -180 Descending FlightAware
06:54PM 33.9425 -118.4081 256° West  Level Estimated
06:55PM 33.9425 -118.4081 256° West  Level Estimated